sensor_id;sensor_type;location;lat;lon;timestamp;P1;durP1;ratioP1;P2;durP2;ratioP2
18789;SDS011;9523;42.650;23.386;2024-02-04T00:02:11;7.10;;;2.70;;
18789;SDS011;9523;42.650;23.386;2024-02-04T00:04:39;4.43;;;2.87;;
18789;SDS011;9523;42.650;23.386;2024-02-04T00:07:06;4.57;;;3.40;;
18789;SDS011;9523;42.650;23.386;2024-02-04T00:09:34;5.50;;;3.30;;
18789;SDS011;9523;42.650;23.386;2024-02-04T00:12:01;4.90;;;3.00;;
18789;SDS011;9523;42.650;23.386;2024-02-04T00:14:29;4.60;;;3.47;;
18789;SDS011;9523;42.650;23.386;2024-02-04T00:16:55;6.53;;;3.30;;
18789;SDS011;9523;42.650;23.386;2024-02-04T00:19:22;4.83;;;3.40;;
18789;SDS011;9523;42.650;23.386;2024-02-04T00:21:49;4.87;;;3.40;;
18789;SDS011;9523;42.650;23.386;2024-02-04T00:24:16;5.73;;;3.50;;
18789;SDS011;9523;42.650;23.386;2024-02-04T00:26:45;4.47;;;3.13;;
18789;SDS011;9523;42.650;23.386;2024-02-04T00:29:12;4.90;;;2.90;;
18789;SDS011;9523;42.650;23.386;2024-02-04T00:31:38;4.77;;;3.20;;
18789;SDS011;9523;42.650;23.386;2024-02-04T00:34:05;3.80;;;3.07;;
18789;SDS011;9523;42.650;23.386;2024-02-04T00:36:32;4.00;;;3.10;;
18789;SDS011;9523;42.650;23.386;2024-02-04T00:38:58;5.03;;;3.43;;
18789;SDS011;9523;42.650;23.386;2024-02-04T00:41:25;7.47;;;3.60;;
18789;SDS011;9523;42.650;23.386;2024-02-04T00:43:53;5.17;;;3.77;;
18789;SDS011;9523;42.650;23.386;2024-02-04T00:46:20;6.20;;;3.50;;
18789;SDS011;9523;42.650;23.386;2024-02-04T00:48:46;6.03;;;3.50;;
18789;SDS011;9523;42.650;23.386;2024-02-04T00:51:13;4.77;;;3.20;;
18789;SDS011;9523;42.650;23.386;2024-02-04T00:53:42;5.80;;;3.73;;
18789;SDS011;9523;42.650;23.386;2024-02-04T00:56:09;5.40;;;3.27;;
18789;SDS011;9523;42.650;23.386;2024-02-04T00:58:36;4.33;;;3.30;;
18789;SDS011;9523;42.650;23.386;2024-02-04T01:01:04;3.83;;;3.03;;
18789;SDS011;9523;42.650;23.386;2024-02-04T01:03:31;5.33;;;3.20;;
18789;SDS011;9523;42.650;23.386;2024-02-04T01:05:58;5.30;;;3.47;;
18789;SDS011;9523;42.650;23.386;2024-02-04T01:08:24;4.40;;;3.50;;
18789;SDS011;9523;42.650;23.386;2024-02-04T01:10:51;4.90;;;3.60;;
18789;SDS011;9523;42.650;23.386;2024-02-04T01:13:18;4.20;;;3.20;;
18789;SDS011;9523;42.650;23.386;2024-02-04T01:15:44;4.40;;;3.47;;
18789;SDS011;9523;42.650;23.386;2024-02-04T01:18:12;3.90;;;3.03;;
18789;SDS011;9523;42.650;23.386;2024-02-04T01:20:39;5.70;;;3.20;;
18789;SDS011;9523;42.650;23.386;2024-02-04T01:23:06;3.90;;;2.70;;
18789;SDS011;9523;42.650;23.386;2024-02-04T01:25:33;4.50;;;3.07;;
18789;SDS011;9523;42.650;23.386;2024-02-04T01:28:00;5.63;;;3.47;;
18789;SDS011;9523;42.650;23.386;2024-02-04T01:30:27;3.20;;;2.90;;
18789;SDS011;9523;42.650;23.386;2024-02-04T01:32:55;3.50;;;2.53;;
18789;SDS011;9523;42.650;23.386;2024-02-04T01:35:23;4.83;;;2.83;;
18789;SDS011;9523;42.650;23.386;2024-02-04T01:37:50;3.50;;;2.83;;
18789;SDS011;9523;42.650;23.386;2024-02-04T01:40:17;4.17;;;3.33;;
18789;SDS011;9523;42.650;23.386;2024-02-04T01:42:44;5.20;;;3.10;;
18789;SDS011;9523;42.650;23.386;2024-02-04T01:45:10;4.50;;;2.93;;
18789;SDS011;9523;42.650;23.386;2024-02-04T01:47:37;4.27;;;3.10;;
18789;SDS011;9523;42.650;23.386;2024-02-04T01:50:04;4.53;;;2.73;;
18789;SDS011;9523;42.650;23.386;2024-02-04T01:52:33;5.90;;;3.20;;
18789;SDS011;9523;42.650;23.386;2024-02-04T01:55:00;4.23;;;2.80;;
18789;SDS011;9523;42.650;23.386;2024-02-04T01:57:27;3.27;;;2.80;;
18789;SDS011;9523;42.650;23.386;2024-02-04T01:59:54;4.00;;;2.47;;
18789;SDS011;9523;42.650;23.386;2024-02-04T02:02:22;3.40;;;2.67;;
18789;SDS011;9523;42.650;23.386;2024-02-04T02:04:49;4.63;;;3.13;;
18789;SDS011;9523;42.650;23.386;2024-02-04T02:07:16;4.07;;;2.80;;
18789;SDS011;9523;42.650;23.386;2024-02-04T02:09:46;4.17;;;2.80;;
18789;SDS011;9523;42.650;23.386;2024-02-04T02:12:13;3.77;;;2.27;;
18789;SDS011;9523;42.650;23.386;2024-02-04T02:14:41;5.10;;;2.90;;
18789;SDS011;9523;42.650;23.386;2024-02-04T02:17:10;3.40;;;2.73;;
18789;SDS011;9523;42.650;23.386;2024-02-04T02:19:45;3.90;;;2.73;;
18789;SDS011;9523;42.650;23.386;2024-02-04T02:22:15;3.63;;;2.97;;
18789;SDS011;9523;42.650;23.386;2024-02-04T02:24:44;3.90;;;2.80;;
18789;SDS011;9523;42.650;23.386;2024-02-04T02:27:13;4.23;;;2.77;;
18789;SDS011;9523;42.650;23.386;2024-02-04T02:29:39;4.20;;;2.60;;
18789;SDS011;9523;42.650;23.386;2024-02-04T02:32:06;4.43;;;3.00;;
18789;SDS011;9523;42.650;23.386;2024-02-04T02:34:33;6.43;;;3.37;;
18789;SDS011;9523;42.650;23.386;2024-02-04T02:37:02;4.60;;;2.73;;
18789;SDS011;9523;42.650;23.386;2024-02-04T02:39:30;3.40;;;2.70;;
18789;SDS011;9523;42.650;23.386;2024-02-04T02:42:01;4.10;;;2.60;;
18789;SDS011;9523;42.650;23.386;2024-02-04T02:44:28;4.87;;;2.90;;
18789;SDS011;9523;42.650;23.386;2024-02-04T02:46:54;3.57;;;2.40;;
18789;SDS011;9523;42.650;23.386;2024-02-04T02:49:22;5.30;;;2.40;;
18789;SDS011;9523;42.650;23.386;2024-02-04T02:51:49;7.50;;;2.70;;
18789;SDS011;9523;42.650;23.386;2024-02-04T02:54:15;3.23;;;2.90;;
18789;SDS011;9523;42.650;23.386;2024-02-04T02:56:42;4.67;;;2.70;;
18789;SDS011;9523;42.650;23.386;2024-02-04T02:59:10;3.93;;;3.17;;
18789;SDS011;9523;42.650;23.386;2024-02-04T03:01:38;3.63;;;2.40;;
18789;SDS011;9523;42.650;23.386;2024-02-04T03:04:05;4.57;;;2.40;;
18789;SDS011;9523;42.650;23.386;2024-02-04T03:06:32;3.13;;;2.70;;
18789;SDS011;9523;42.650;23.386;2024-02-04T03:08:58;4.20;;;3.00;;
18789;SDS011;9523;42.650;23.386;2024-02-04T03:11:25;3.53;;;2.60;;
18789;SDS011;9523;42.650;23.386;2024-02-04T03:13:52;3.13;;;2.43;;
18789;SDS011;9523;42.650;23.386;2024-02-04T03:16:20;4.30;;;2.83;;
18789;SDS011;9523;42.650;23.386;2024-02-04T03:18:47;3.90;;;2.60;;
18789;SDS011;9523;42.650;23.386;2024-02-04T03:21:14;3.27;;;2.13;;
18789;SDS011;9523;42.650;23.386;2024-02-04T03:23:40;4.67;;;2.90;;
18789;SDS011;9523;42.650;23.386;2024-02-04T03:26:07;3.50;;;2.27;;
18789;SDS011;9523;42.650;23.386;2024-02-04T03:28:34;3.40;;;2.30;;
18789;SDS011;9523;42.650;23.386;2024-02-04T03:31:01;2.83;;;2.30;;
18789;SDS011;9523;42.650;23.386;2024-02-04T03:33:29;3.90;;;2.57;;
18789;SDS011;9523;42.650;23.386;2024-02-04T03:35:55;3.30;;;2.60;;
18789;SDS011;9523;42.650;23.386;2024-02-04T03:38:22;3.27;;;2.37;;
18789;SDS011;9523;42.650;23.386;2024-02-04T03:40:49;5.40;;;2.30;;
18789;SDS011;9523;42.650;23.386;2024-02-04T03:43:19;3.97;;;2.57;;
18789;SDS011;9523;42.650;23.386;2024-02-04T03:45:45;2.80;;;2.30;;
18789;SDS011;9523;42.650;23.386;2024-02-04T03:48:12;2.57;;;2.03;;
18789;SDS011;9523;42.650;23.386;2024-02-04T03:50:40;4.20;;;2.13;;
18789;SDS011;9523;42.650;23.386;2024-02-04T03:53:07;3.07;;;2.30;;
18789;SDS011;9523;42.650;23.386;2024-02-04T03:55:33;2.07;;;1.77;;
18789;SDS011;9523;42.650;23.386;2024-02-04T03:58:00;2.93;;;1.80;;
18789;SDS011;9523;42.650;23.386;2024-02-04T04:00:27;2.37;;;1.90;;
18789;SDS011;9523;42.650;23.386;2024-02-04T04:02:54;2.63;;;1.80;;
18789;SDS011;9523;42.650;23.386;2024-02-04T04:05:20;2.83;;;2.00;;
18789;SDS011;9523;42.650;23.386;2024-02-04T04:07:48;2.33;;;2.00;;
18789;SDS011;9523;42.650;23.386;2024-02-04T04:10:15;3.30;;;1.87;;
18789;SDS011;9523;42.650;23.386;2024-02-04T04:12:42;2.30;;;2.10;;
18789;SDS011;9523;42.650;23.386;2024-02-04T04:15:09;2.93;;;2.20;;
18789;SDS011;9523;42.650;23.386;2024-02-04T04:17:35;2.70;;;2.00;;
18789;SDS011;9523;42.650;23.386;2024-02-04T04:20:03;2.83;;;2.30;;
18789;SDS011;9523;42.650;23.386;2024-02-04T04:22:30;4.80;;;2.83;;
18789;SDS011;9523;42.650;23.386;2024-02-04T04:24:58;2.50;;;2.13;;
18789;SDS011;9523;42.650;23.386;2024-02-04T04:27:25;3.13;;;2.33;;
18789;SDS011;9523;42.650;23.386;2024-02-04T04:29:56;3.77;;;2.27;;
18789;SDS011;9523;42.650;23.386;2024-02-04T04:32:22;3.20;;;2.17;;
18789;SDS011;9523;42.650;23.386;2024-02-04T04:34:49;2.47;;;2.20;;
18789;SDS011;9523;42.650;23.386;2024-02-04T04:37:16;2.73;;;2.23;;
18789;SDS011;9523;42.650;23.386;2024-02-04T04:39:42;2.33;;;2.00;;
18789;SDS011;9523;42.650;23.386;2024-02-04T04:42:10;3.67;;;2.20;;
18789;SDS011;9523;42.650;23.386;2024-02-04T04:44:37;2.50;;;1.87;;
18789;SDS011;9523;42.650;23.386;2024-02-04T04:47:04;3.30;;;2.20;;
18789;SDS011;9523;42.650;23.386;2024-02-04T04:49:30;2.40;;;2.20;;
18789;SDS011;9523;42.650;23.386;2024-02-04T04:51:57;2.30;;;1.70;;
18789;SDS011;9523;42.650;23.386;2024-02-04T04:54:24;3.23;;;2.00;;
18789;SDS011;9523;42.650;23.386;2024-02-04T04:56:50;3.07;;;2.20;;
18789;SDS011;9523;42.650;23.386;2024-02-04T04:59:18;2.73;;;2.23;;
18789;SDS011;9523;42.650;23.386;2024-02-04T05:01:45;3.57;;;2.27;;
18789;SDS011;9523;42.650;23.386;2024-02-04T05:04:12;2.73;;;2.17;;
18789;SDS011;9523;42.650;23.386;2024-02-04T05:06:39;2.53;;;2.20;;
18789;SDS011;9523;42.650;23.386;2024-02-04T05:09:06;2.70;;;1.83;;
18789;SDS011;9523;42.650;23.386;2024-02-04T05:11:32;3.33;;;2.83;;
18789;SDS011;9523;42.650;23.386;2024-02-04T05:13:59;2.57;;;1.93;;
18789;SDS011;9523;42.650;23.386;2024-02-04T05:16:27;2.90;;;2.23;;
18789;SDS011;9523;42.650;23.386;2024-02-04T05:18:54;2.77;;;2.40;;
18789;SDS011;9523;42.650;23.386;2024-02-04T05:21:20;3.13;;;2.27;;
18789;SDS011;9523;42.650;23.386;2024-02-04T05:23:47;3.70;;;2.63;;
18789;SDS011;9523;42.650;23.386;2024-02-04T05:26:14;2.87;;;2.40;;
18789;SDS011;9523;42.650;23.386;2024-02-04T05:28:43;3.30;;;2.40;;
18789;SDS011;9523;42.650;23.386;2024-02-04T05:31:10;3.73;;;2.50;;
18789;SDS011;9523;42.650;23.386;2024-02-04T05:33:38;2.80;;;2.17;;
18789;SDS011;9523;42.650;23.386;2024-02-04T05:36:05;2.33;;;2.13;;
18789;SDS011;9523;42.650;23.386;2024-02-04T05:38:31;3.73;;;2.50;;
18789;SDS011;9523;42.650;23.386;2024-02-04T05:40:58;3.10;;;2.37;;
18789;SDS011;9523;42.650;23.386;2024-02-04T05:43:24;2.77;;;2.30;;
18789;SDS011;9523;42.650;23.386;2024-02-04T05:45:51;2.63;;;2.10;;
18789;SDS011;9523;42.650;23.386;2024-02-04T05:48:18;2.93;;;2.23;;
18789;SDS011;9523;42.650;23.386;2024-02-04T05:50:46;4.27;;;2.40;;
18789;SDS011;9523;42.650;23.386;2024-02-04T05:53:13;3.60;;;2.30;;
18789;SDS011;9523;42.650;23.386;2024-02-04T05:55:39;2.73;;;2.27;;
18789;SDS011;9523;42.650;23.386;2024-02-04T05:58:06;2.90;;;1.90;;
18789;SDS011;9523;42.650;23.386;2024-02-04T06:00:33;2.77;;;2.30;;
18789;SDS011;9523;42.650;23.386;2024-02-04T06:02:59;3.23;;;2.20;;
18789;SDS011;9523;42.650;23.386;2024-02-04T06:05:27;2.60;;;2.10;;
18789;SDS011;9523;42.650;23.386;2024-02-04T06:07:55;2.87;;;2.20;;
18789;SDS011;9523;42.650;23.386;2024-02-04T06:10:21;4.30;;;2.60;;
18789;SDS011;9523;42.650;23.386;2024-02-04T06:12:48;4.50;;;2.43;;
18789;SDS011;9523;42.650;23.386;2024-02-04T06:15:15;4.10;;;2.30;;
18789;SDS011;9523;42.650;23.386;2024-02-04T06:17:42;2.20;;;2.00;;
18789;SDS011;9523;42.650;23.386;2024-02-04T06:20:09;2.97;;;2.40;;
18789;SDS011;9523;42.650;23.386;2024-02-04T06:22:36;4.60;;;2.43;;
18789;SDS011;9523;42.650;23.386;2024-02-04T06:25:04;3.93;;;2.70;;
18789;SDS011;9523;42.650;23.386;2024-02-04T06:27:31;3.97;;;2.60;;
18789;SDS011;9523;42.650;23.386;2024-02-04T06:29:58;3.33;;;2.47;;
18789;SDS011;9523;42.650;23.386;2024-02-04T06:32:24;5.50;;;2.90;;
18789;SDS011;9523;42.650;23.386;2024-02-04T06:34:51;4.63;;;2.77;;
18789;SDS011;9523;42.650;23.386;2024-02-04T06:37:20;5.70;;;2.90;;
18789;SDS011;9523;42.650;23.386;2024-02-04T06:39:47;3.40;;;2.87;;
18789;SDS011;9523;42.650;23.386;2024-02-04T06:42:15;3.97;;;2.60;;
18789;SDS011;9523;42.650;23.386;2024-02-04T06:44:42;3.23;;;2.80;;
18789;SDS011;9523;42.650;23.386;2024-02-04T06:47:09;2.33;;;2.13;;
18789;SDS011;9523;42.650;23.386;2024-02-04T06:49:37;3.70;;;2.70;;
18789;SDS011;9523;42.650;23.386;2024-02-04T06:52:04;4.53;;;2.77;;
18789;SDS011;9523;42.650;23.386;2024-02-04T06:54:31;3.57;;;2.37;;
18789;SDS011;9523;42.650;23.386;2024-02-04T06:56:58;7.03;;;2.80;;
18789;SDS011;9523;42.650;23.386;2024-02-04T06:59:26;5.40;;;2.80;;
18789;SDS011;9523;42.650;23.386;2024-02-04T07:01:52;2.87;;;2.33;;
18789;SDS011;9523;42.650;23.386;2024-02-04T07:04:21;2.90;;;2.40;;
18789;SDS011;9523;42.650;23.386;2024-02-04T07:06:51;3.60;;;2.60;;
18789;SDS011;9523;42.650;23.386;2024-02-04T07:09:18;2.60;;;1.60;;
18789;SDS011;9523;42.650;23.386;2024-02-04T07:11:45;9.17;;;2.17;;
18789;SDS011;9523;42.650;23.386;2024-02-04T07:14:11;2.67;;;2.47;;
18789;SDS011;9523;42.650;23.386;2024-02-04T07:16:40;3.10;;;2.37;;
18789;SDS011;9523;42.650;23.386;2024-02-04T07:19:06;2.50;;;1.60;;
18789;SDS011;9523;42.650;23.386;2024-02-04T07:21:33;3.20;;;2.53;;
18789;SDS011;9523;42.650;23.386;2024-02-04T07:24:00;2.67;;;2.37;;
18789;SDS011;9523;42.650;23.386;2024-02-04T07:26:27;5.13;;;2.70;;
18789;SDS011;9523;42.650;23.386;2024-02-04T07:28:53;3.50;;;2.47;;
18789;SDS011;9523;42.650;23.386;2024-02-04T07:31:20;4.27;;;2.80;;
18789;SDS011;9523;42.650;23.386;2024-02-04T07:33:52;5.27;;;2.63;;
18789;SDS011;9523;42.650;23.386;2024-02-04T07:36:18;2.77;;;2.00;;
18789;SDS011;9523;42.650;23.386;2024-02-04T07:38:45;2.80;;;2.30;;
18789;SDS011;9523;42.650;23.386;2024-02-04T07:41:13;3.27;;;2.50;;
18789;SDS011;9523;42.650;23.386;2024-02-04T07:43:40;3.73;;;2.83;;
18789;SDS011;9523;42.650;23.386;2024-02-04T07:46:07;4.80;;;2.73;;
18789;SDS011;9523;42.650;23.386;2024-02-04T07:48:34;3.93;;;2.47;;
18789;SDS011;9523;42.650;23.386;2024-02-04T07:51:02;2.73;;;1.80;;
18789;SDS011;9523;42.650;23.386;2024-02-04T07:53:28;4.60;;;1.87;;
18789;SDS011;9523;42.650;23.386;2024-02-04T07:55:55;5.67;;;2.57;;
18789;SDS011;9523;42.650;23.386;2024-02-04T07:58:22;4.50;;;2.33;;
18789;SDS011;9523;42.650;23.386;2024-02-04T08:00:49;2.77;;;2.37;;
18789;SDS011;9523;42.650;23.386;2024-02-04T08:03:15;4.23;;;2.10;;
18789;SDS011;9523;42.650;23.386;2024-02-04T08:05:42;2.87;;;2.07;;
18789;SDS011;9523;42.650;23.386;2024-02-04T08:08:10;4.07;;;2.43;;
18789;SDS011;9523;42.650;23.386;2024-02-04T08:10:37;4.53;;;2.20;;
18789;SDS011;9523;42.650;23.386;2024-02-04T08:13:04;4.13;;;2.47;;
18789;SDS011;9523;42.650;23.386;2024-02-04T08:15:30;2.50;;;1.83;;
18789;SDS011;9523;42.650;23.386;2024-02-04T08:17:57;3.47;;;2.07;;
18789;SDS011;9523;42.650;23.386;2024-02-04T08:20:24;3.07;;;1.87;;
18789;SDS011;9523;42.650;23.386;2024-02-04T08:22:51;3.73;;;2.27;;
18789;SDS011;9523;42.650;23.386;2024-02-04T08:25:19;3.13;;;2.00;;
18789;SDS011;9523;42.650;23.386;2024-02-04T08:27:46;3.93;;;2.20;;
18789;SDS011;9523;42.650;23.386;2024-02-04T08:30:13;2.53;;;1.90;;
18789;SDS011;9523;42.650;23.386;2024-02-04T08:32:39;2.40;;;2.20;;
18789;SDS011;9523;42.650;23.386;2024-02-04T08:35:06;3.47;;;1.60;;
18789;SDS011;9523;42.650;23.386;2024-02-04T08:37:33;2.50;;;2.03;;
18789;SDS011;9523;42.650;23.386;2024-02-04T08:40:01;4.13;;;1.90;;
18789;SDS011;9523;42.650;23.386;2024-02-04T08:42:30;4.40;;;2.07;;
18789;SDS011;9523;42.650;23.386;2024-02-04T08:44:57;2.80;;;1.53;;
18789;SDS011;9523;42.650;23.386;2024-02-04T08:47:23;2.73;;;1.87;;
18789;SDS011;9523;42.650;23.386;2024-02-04T08:49:50;3.63;;;2.20;;
18789;SDS011;9523;42.650;23.386;2024-02-04T08:52:17;4.97;;;2.53;;
18789;SDS011;9523;42.650;23.386;2024-02-04T08:54:43;4.80;;;1.60;;
18789;SDS011;9523;42.650;23.386;2024-02-04T08:57:10;5.90;;;3.90;;
18789;SDS011;9523;42.650;23.386;2024-02-04T08:59:38;4.27;;;2.23;;
18789;SDS011;9523;42.650;23.386;2024-02-04T09:02:05;2.80;;;1.70;;
18789;SDS011;9523;42.650;23.386;2024-02-04T09:04:32;4.20;;;1.80;;
18789;SDS011;9523;42.650;23.386;2024-02-04T09:07:05;2.97;;;1.77;;
18789;SDS011;9523;42.650;23.386;2024-02-04T09:09:32;2.30;;;1.60;;
18789;SDS011;9523;42.650;23.386;2024-02-04T09:11:58;2.17;;;1.70;;
18789;SDS011;9523;42.650;23.386;2024-02-04T09:14:25;2.40;;;1.30;;
18789;SDS011;9523;42.650;23.386;2024-02-04T09:16:53;3.80;;;1.40;;
18789;SDS011;9523;42.650;23.386;2024-02-04T09:19:20;5.70;;;1.83;;
18789;SDS011;9523;42.650;23.386;2024-02-04T09:21:46;4.50;;;1.63;;
18789;SDS011;9523;42.650;23.386;2024-02-04T09:24:13;3.43;;;1.53;;
18789;SDS011;9523;42.650;23.386;2024-02-04T09:26:40;3.90;;;1.73;;
18789;SDS011;9523;42.650;23.386;2024-02-04T09:29:06;2.70;;;1.60;;
18789;SDS011;9523;42.650;23.386;2024-02-04T09:31:33;3.00;;;1.70;;
18789;SDS011;9523;42.650;23.386;2024-02-04T09:34:04;2.83;;;1.97;;
18789;SDS011;9523;42.650;23.386;2024-02-04T09:36:31;1.77;;;1.50;;
18789;SDS011;9523;42.650;23.386;2024-02-04T09:38:58;5.93;;;2.00;;
18789;SDS011;9523;42.650;23.386;2024-02-04T09:41:25;3.57;;;1.60;;
18789;SDS011;9523;42.650;23.386;2024-02-04T09:43:52;2.83;;;1.63;;
18789;SDS011;9523;42.650;23.386;2024-02-04T09:46:19;5.33;;;1.60;;
18789;SDS011;9523;42.650;23.386;2024-02-04T09:48:45;1.90;;;1.60;;
18789;SDS011;9523;42.650;23.386;2024-02-04T09:51:13;2.93;;;1.90;;
18789;SDS011;9523;42.650;23.386;2024-02-04T09:53:42;2.23;;;1.90;;
18789;SDS011;9523;42.650;23.386;2024-02-04T09:56:10;2.60;;;1.70;;
18789;SDS011;9523;42.650;23.386;2024-02-04T09:58:37;2.53;;;1.80;;
18789;SDS011;9523;42.650;23.386;2024-02-04T10:01:04;3.13;;;2.10;;
18789;SDS011;9523;42.650;23.386;2024-02-04T10:03:33;4.50;;;2.10;;
18789;SDS011;9523;42.650;23.386;2024-02-04T10:06:00;4.37;;;2.10;;
18789;SDS011;9523;42.650;23.386;2024-02-04T10:08:29;4.57;;;2.10;;
18789;SDS011;9523;42.650;23.386;2024-02-04T10:10:55;3.30;;;2.13;;
18789;SDS011;9523;42.650;23.386;2024-02-04T10:13:23;2.17;;;1.70;;
18789;SDS011;9523;42.650;23.386;2024-02-04T10:15:49;2.17;;;1.47;;
18789;SDS011;9523;42.650;23.386;2024-02-04T10:18:16;2.40;;;1.70;;
18789;SDS011;9523;42.650;23.386;2024-02-04T10:20:43;3.57;;;1.67;;
18789;SDS011;9523;42.650;23.386;2024-02-04T10:23:10;2.27;;;1.40;;
18789;SDS011;9523;42.650;23.386;2024-02-04T10:25:41;2.13;;;1.40;;
18789;SDS011;9523;42.650;23.386;2024-02-04T10:28:08;4.57;;;1.47;;
18789;SDS011;9523;42.650;23.386;2024-02-04T10:30:37;2.57;;;1.73;;
18789;SDS011;9523;42.650;23.386;2024-02-04T10:33:04;3.37;;;1.70;;
18789;SDS011;9523;42.650;23.386;2024-02-04T10:35:30;4.27;;;1.60;;
18789;SDS011;9523;42.650;23.386;2024-02-04T10:37:57;2.00;;;1.27;;
18789;SDS011;9523;42.650;23.386;2024-02-04T10:40:24;2.00;;;1.43;;
18789;SDS011;9523;42.650;23.386;2024-02-04T10:42:52;18.17;;;3.33;;
18789;SDS011;9523;42.650;23.386;2024-02-04T10:45:22;3.10;;;1.63;;
18789;SDS011;9523;42.650;23.386;2024-02-04T10:47:53;1.80;;;1.43;;
18789;SDS011;9523;42.650;23.386;2024-02-04T10:50:22;3.00;;;1.50;;
18789;SDS011;9523;42.650;23.386;2024-02-04T10:52:50;1.63;;;1.23;;
18789;SDS011;9523;42.650;23.386;2024-02-04T10:55:17;1.63;;;1.40;;
18789;SDS011;9523;42.650;23.386;2024-02-04T10:57:44;1.80;;;1.40;;
18789;SDS011;9523;42.650;23.386;2024-02-04T11:00:12;2.47;;;1.40;;
18789;SDS011;9523;42.650;23.386;2024-02-04T11:02:41;2.33;;;1.50;;
18789;SDS011;9523;42.650;23.386;2024-02-04T11:05:11;1.23;;;1.07;;
18789;SDS011;9523;42.650;23.386;2024-02-04T11:07:38;2.70;;;1.20;;
18789;SDS011;9523;42.650;23.386;2024-02-04T11:10:09;1.73;;;1.30;;
18789;SDS011;9523;42.650;23.386;2024-02-04T11:12:38;3.33;;;1.40;;
18789;SDS011;9523;42.650;23.386;2024-02-04T11:15:07;1.43;;;1.30;;
18789;SDS011;9523;42.650;23.386;2024-02-04T11:17:56;1.73;;;1.30;;
18789;SDS011;9523;42.650;23.386;2024-02-04T11:20:30;4.07;;;1.47;;
18789;SDS011;9523;42.650;23.386;2024-02-04T11:25:48;1.80;;;1.27;;
18789;SDS011;9523;42.650;23.386;2024-02-04T11:28:15;4.17;;;1.60;;
18789;SDS011;9523;42.650;23.386;2024-02-04T11:30:43;3.20;;;1.60;;
18789;SDS011;9523;42.650;23.386;2024-02-04T11:33:12;2.17;;;1.10;;
18789;SDS011;9523;42.650;23.386;2024-02-04T11:35:42;2.00;;;1.40;;
18789;SDS011;9523;42.650;23.386;2024-02-04T11:38:16;2.20;;;1.57;;
18789;SDS011;9523;42.650;23.386;2024-02-04T11:40:45;1.87;;;1.47;;
18789;SDS011;9523;42.650;23.386;2024-02-04T11:43:12;1.77;;;1.30;;
18789;SDS011;9523;42.650;23.386;2024-02-04T11:45:39;6.33;;;1.73;;
18789;SDS011;9523;42.650;23.386;2024-02-04T11:48:06;1.17;;;1.07;;
18789;SDS011;9523;42.650;23.386;2024-02-04T11:50:34;2.53;;;1.47;;
18789;SDS011;9523;42.650;23.386;2024-02-04T11:53:03;2.20;;;1.47;;
18789;SDS011;9523;42.650;23.386;2024-02-04T11:55:31;2.07;;;1.57;;
18789;SDS011;9523;42.650;23.386;2024-02-04T11:58:01;4.10;;;1.80;;
18789;SDS011;9523;42.650;23.386;2024-02-04T12:00:28;1.63;;;1.30;;
18789;SDS011;9523;42.650;23.386;2024-02-04T12:03:02;1.77;;;1.40;;
18789;SDS011;9523;42.650;23.386;2024-02-04T12:05:30;1.50;;;1.20;;
18789;SDS011;9523;42.650;23.386;2024-02-04T12:07:59;2.13;;;1.60;;
18789;SDS011;9523;42.650;23.386;2024-02-04T12:10:26;1.97;;;1.40;;
18789;SDS011;9523;42.650;23.386;2024-02-04T12:12:53;4.00;;;1.50;;
18789;SDS011;9523;42.650;23.386;2024-02-04T12:15:20;1.77;;;1.30;;
18789;SDS011;9523;42.650;23.386;2024-02-04T12:17:47;2.53;;;1.30;;
18789;SDS011;9523;42.650;23.386;2024-02-04T12:20:13;2.73;;;1.23;;
18789;SDS011;9523;42.650;23.386;2024-02-04T12:22:40;2.60;;;1.37;;
18789;SDS011;9523;42.650;23.386;2024-02-04T12:25:08;2.87;;;1.50;;
18789;SDS011;9523;42.650;23.386;2024-02-04T12:27:35;1.73;;;1.10;;
18789;SDS011;9523;42.650;23.386;2024-02-04T12:30:02;3.77;;;1.53;;
18789;SDS011;9523;42.650;23.386;2024-02-04T12:32:30;1.67;;;1.50;;
18789;SDS011;9523;42.650;23.386;2024-02-04T12:34:57;1.83;;;1.43;;
18789;SDS011;9523;42.650;23.386;2024-02-04T12:37:24;2.37;;;1.50;;
18789;SDS011;9523;42.650;23.386;2024-02-04T12:39:52;2.77;;;1.50;;
18789;SDS011;9523;42.650;23.386;2024-02-04T12:42:20;2.43;;;1.60;;
18789;SDS011;9523;42.650;23.386;2024-02-04T12:44:47;5.53;;;1.37;;
18789;SDS011;9523;42.650;23.386;2024-02-04T12:47:13;2.00;;;1.50;;
18789;SDS011;9523;42.650;23.386;2024-02-04T12:49:41;1.33;;;1.20;;
18789;SDS011;9523;42.650;23.386;2024-02-04T12:52:08;1.50;;;1.40;;
18789;SDS011;9523;42.650;23.386;2024-02-04T12:54:41;3.17;;;1.40;;
18789;SDS011;9523;42.650;23.386;2024-02-04T12:57:22;1.60;;;1.30;;
18789;SDS011;9523;42.650;23.386;2024-02-04T12:59:49;2.50;;;1.43;;
18789;SDS011;9523;42.650;23.386;2024-02-04T13:02:16;2.70;;;1.50;;
18789;SDS011;9523;42.650;23.386;2024-02-04T13:04:43;3.23;;;1.63;;
18789;SDS011;9523;42.650;23.386;2024-02-04T13:07:10;2.27;;;1.50;;
18789;SDS011;9523;42.650;23.386;2024-02-04T13:09:41;1.67;;;1.57;;
18789;SDS011;9523;42.650;23.386;2024-02-04T13:12:11;3.40;;;1.67;;
18789;SDS011;9523;42.650;23.386;2024-02-04T13:14:42;3.63;;;1.57;;
18789;SDS011;9523;42.650;23.386;2024-02-04T13:17:09;2.43;;;1.60;;
18789;SDS011;9523;42.650;23.386;2024-02-04T13:19:36;3.10;;;1.60;;
18789;SDS011;9523;42.650;23.386;2024-02-04T13:22:03;7.53;;;5.27;;
18789;SDS011;9523;42.650;23.386;2024-02-04T13:24:31;2.73;;;1.60;;
18789;SDS011;9523;42.650;23.386;2024-02-04T13:26:58;2.30;;;1.40;;
18789;SDS011;9523;42.650;23.386;2024-02-04T13:29:25;2.17;;;1.30;;
18789;SDS011;9523;42.650;23.386;2024-02-04T13:31:54;2.17;;;1.83;;
18789;SDS011;9523;42.650;23.386;2024-02-04T13:34:21;2.87;;;1.60;;
18789;SDS011;9523;42.650;23.386;2024-02-04T13:36:47;2.57;;;1.50;;
18789;SDS011;9523;42.650;23.386;2024-02-04T13:39:14;2.13;;;1.50;;
18789;SDS011;9523;42.650;23.386;2024-02-04T13:41:43;1.80;;;1.60;;
18789;SDS011;9523;42.650;23.386;2024-02-04T13:44:10;4.73;;;1.57;;
18789;SDS011;9523;42.650;23.386;2024-02-04T13:46:37;2.17;;;1.70;;
18789;SDS011;9523;42.650;23.386;2024-02-04T13:49:08;2.57;;;1.50;;
18789;SDS011;9523;42.650;23.386;2024-02-04T13:51:37;3.27;;;1.40;;
18789;SDS011;9523;42.650;23.386;2024-02-04T13:54:03;1.70;;;1.40;;
18789;SDS011;9523;42.650;23.386;2024-02-04T13:56:37;3.27;;;1.57;;
18789;SDS011;9523;42.650;23.386;2024-02-04T13:59:04;1.90;;;1.40;;
18789;SDS011;9523;42.650;23.386;2024-02-04T14:01:31;1.70;;;1.40;;
18789;SDS011;9523;42.650;23.386;2024-02-04T14:03:58;1.37;;;1.20;;
18789;SDS011;9523;42.650;23.386;2024-02-04T14:06:26;3.23;;;1.60;;
18789;SDS011;9523;42.650;23.386;2024-02-04T14:08:53;2.47;;;1.47;;
18789;SDS011;9523;42.650;23.386;2024-02-04T14:11:20;3.60;;;1.53;;
18789;SDS011;9523;42.650;23.386;2024-02-04T14:13:46;2.53;;;1.50;;
18789;SDS011;9523;42.650;23.386;2024-02-04T14:16:13;5.00;;;1.90;;
18789;SDS011;9523;42.650;23.386;2024-02-04T14:18:40;1.87;;;1.37;;
18789;SDS011;9523;42.650;23.386;2024-02-04T14:21:11;2.03;;;1.57;;
18789;SDS011;9523;42.650;23.386;2024-02-04T14:23:40;1.83;;;1.63;;
18789;SDS011;9523;42.650;23.386;2024-02-04T14:26:08;2.47;;;1.73;;
18789;SDS011;9523;42.650;23.386;2024-02-04T14:28:34;1.60;;;1.50;;
18789;SDS011;9523;42.650;23.386;2024-02-04T14:31:08;2.33;;;1.63;;
18789;SDS011;9523;42.650;23.386;2024-02-04T14:33:34;4.23;;;2.33;;
18789;SDS011;9523;42.650;23.386;2024-02-04T14:36:01;2.27;;;1.60;;
18789;SDS011;9523;42.650;23.386;2024-02-04T14:38:29;3.60;;;1.80;;
18789;SDS011;9523;42.650;23.386;2024-02-04T14:40:57;2.40;;;1.53;;
18789;SDS011;9523;42.650;23.386;2024-02-04T14:43:24;4.10;;;2.17;;
18789;SDS011;9523;42.650;23.386;2024-02-04T14:45:51;2.30;;;1.63;;
18789;SDS011;9523;42.650;23.386;2024-02-04T14:48:18;3.17;;;1.83;;
18789;SDS011;9523;42.650;23.386;2024-02-04T14:50:44;3.23;;;2.30;;
18789;SDS011;9523;42.650;23.386;2024-02-04T14:53:11;2.97;;;2.03;;